Tiempo atmosférico en la estación meteorológica de Manilva, Málaga (140 m.)



Fecha
DESCASC
Temp. máxima en grados centígrados (hora)
DESCASC
Temp. mínima en grados centígrados (hora)
DESCASC
Temp. media en grados centígrados
DESCASC
Racha de viento máxima en m/sg (hora)
DESCASC
Velocidad máxima media en intervalos de 10 minutos(hora)
DESCASC
Precipitaciones diarias en mm
DESCASC
Precipitaciones de 00:00 a 06:00 en mm
DESCASC
Precipitaciones de 06:00 a 12:00 en mm
DESCASC
Precipitaciones de 12:00 a 18:00 en mm
DESCASC
Precipitaciones de 18:00 a 24:00 en mm
DESCASC
31-03-2020 17.6 (16:20) 12 (05:40) 14.8 10.28 (16:20) 6.11 (16:20) 24.6 16.2 4.8 1.8 1.8
30-03-2020 19.2 (16:40) 10.9 (07:50) 15.1 7.22 (11:40) 5 (11:40) 0.4 0 0 0 0.4
29-03-2020 18.1 (16:40) 10.5 (00:00) 14.3 5.56 (15:30) 3.06 (14:00) 0 0 0 0 0
28-03-2020 16.3 (12:30) 9.5 (00:00) 12.9 9.72 (14:00) 5.83 (13:10) 0.6 0 0 0.6 0
27-03-2020 19.4 (18:00) 9.9 (00:00) 14.6 8.61 (13:10) 5.83 (10:50) 0 0 0 0 0
26-03-2020 20.7 (15:30) 9.6 (00:00) 15.2 13.89 (12:00) 9.17 (16:00) 0 0 0 0 0
25-03-2020 15.4 (16:50) 9.9 (00:00) 12.6 8.33 (12:40) 4.44 (12:40) 4.2 0.4 3.8 0 0
24-03-2020 15.4 (12:30) 11.1 (00:00) 13.3 8.61 (00:10) 5.28 (14:10) 6.8 0 6.2 0.6 0
23-03-2020 15 (12:50) 9.7 (00:00) 12.3 11.11 (16:00) 6.67 (16:00) 0.6 0 0 0 0.6
22-03-2020 14.8 (13:50) 9.1 (06:20) 12 6.11 (13:50) 3.89 (13:50) 4.8 1.8 0 3 0
21-03-2020 15.1 (13:50) 9.1 (00:00) 12.1 12.22 (14:10) 6.94 (14:20) 21.8 12.4 1.2 5.8 2.4
20-03-2020 15.5 (16:30) 12.8 (00:00) 14.2 11.39 (00:10) 6.39 (00:40) 3 0 0.8 0.2 2
19-03-2020 15.6 (16:50) 14.5 (00:00) 15.1 12.22 (11:40) 7.5 (12:20) 0 0 0 0 0
18-03-2020 16.6 (14:30) 14.2 (00:00) 15.4 15.56 (00:40) 10 (00:40) 0.2 0.2 0 0 0
17-03-2020 15.6 (14:50) 8.1 (00:00) 11.9 15.83 (14:50) 10 (15:00) 10 2.8 5.2 0.2 1.8
16-03-2020 18.1 (16:50) 11.3 (00:00) 14.7 15.83 (15:20) 8.89 (15:20) 0 0 0 0 0
15-03-2020 17.3 (13:50) 12.9 (00:00) 15.1 9.44 (11:30) 6.11 (10:50) 0 0 0 0 0
14-03-2020 17.8 (13:40) 13 (00:00) 15.4 7.5 (12:00) 4.72 (11:20) 0 0 0 0 0
13-03-2020 24.2 (16:30) 13.5 (08:20) 18.9 13.61 (09:40) 9.44 (09:30) 0 0 0 0 0
12-03-2020 26.3 (17:00) 14.9 (00:00) 20.6 5.83 (12:40) 3.61 (12:40) 0 0 0 0 0
11-03-2020 21.8 (16:40) 14.2 (00:00) 18 8.06 (13:40) 5.28 (13:40) 0 0 0 0 0
10-03-2020 20.5 (10:50) 14.5 (00:00) 17.5 12.22 (00:10) 8.06 (00:10) 0 0 0 0 0
09-03-2020 26 (17:30) 15.5 (00:00) 20.8 13.06 (22:20) 8.61 (22:20) 0 0 0 0 0
08-03-2020 20.3 (17:20) 10.7 (00:00) 15.5 8.33 (23:00) 5.56 (23:00) 0 0 0 0 0
07-03-2020 19.4 (14:20) 10.4 (00:00) 14.9 9.72 (01:00) 5.83 (01:00) 0 0 0 0 0
06-03-2020 19.4 (16:50) 10.3 (00:00) 14.8 14.17 (12:50) 8.89 (13:00) 0 0 0 0 0
05-03-2020 18.3 (12:50) 12.5 (00:00) 15.4 15.56 (11:40) 10 (15:30) 0 0 0 0 0
04-03-2020 23.3 (17:30) 13 (00:00) 18.1 13.06 (12:50) 7.5 (11:30) 0 0 0 0 0

Gráficas

Temp. máximas Temp. mínimas Temp. medias Precipitaciones Rachas de viento máximas Velocidades máximas media en intervalos de 10 minutos

Datos horarios

Fecha y hora oficial Temperatura (ºC) Velocidad del viento (km/h) Dirección del viento Racha (km/h) Dirección de racha Precipitación (mm) Presión (hPa) Tendencia (hPa) Humedad (%)
2020-04-02 23:00:00 11.3 10 Oeste 17 Oeste 0 -- -- 85
2020-04-02 22:00:00 11.6 6 Noroeste 25 Oeste 0 -- -- 84
2020-04-02 21:00:00 11.9 17 Noroeste 32 Noroeste 0.2 -- -- 82
2020-04-02 20:00:00 12.6 13 Noroeste 34 Oeste 0 -- -- 81
2020-04-02 19:00:00 15.7 12 Oeste 32 Noroeste 0 -- -- 61
2020-04-02 18:00:00 17.3 21 Noroeste 36 Noroeste 0 -- -- 49
2020-04-02 17:00:00 16.8 15 Noroeste 36 Norte 0 -- -- 55
2020-04-02 16:00:00 15.6 21 Norte 38 Norte 0 -- -- 58
2020-04-02 15:00:00 15 19 Noroeste 40 Oeste 0 -- -- 61
2020-04-02 14:00:00 13.8 14 Noroeste 28 Noroeste 0.2 -- -- 72
2020-04-02 13:00:00 12.3 14 Norte 23 Norte 0 -- -- 79
2020-04-02 12:00:00 10.9 8 Nordeste 18 Norte 1.4 -- -- 93
2020-04-02 11:00:00 9.9 5 Nordeste 26 Oeste 1.6 -- -- 90
2020-04-02 10:00:00 10.6 2 Noroeste 10 Oeste 0.2 -- -- 87
2020-04-02 09:00:00 8.8 6 Noroeste 17 Oeste 0 -- -- 92
2020-04-02 08:00:00 8.9 6 Noroeste 33 Norte 2.6 -- -- 90
2020-04-02 07:00:00 10 18 Norte 34 Norte 2.4 -- -- 92
2020-04-02 06:00:00 10.6 5 Oeste 13 Noroeste 0.2 -- -- 93
2020-04-02 05:00:00 10.9 7 Noroeste 15 Norte 1.4 -- -- 93
2020-04-02 04:00:00 10.8 9 Noroeste 16 Noroeste 0.2 -- -- 92
2020-04-02 03:00:00 10.4 7 Noroeste 10 Noroeste 0 -- -- 92
2020-04-02 02:00:00 10.9 4 Noroeste 14 Noroeste 0.8 -- -- 91
2020-04-02 01:00:00 10.8 6 Noroeste 15 Oeste 0 -- -- 89
2020-04-02 00:00:00 10.9 5 Noroeste 13 Noroeste 0 -- -- 90
2020-04-01 23:00:00 11.4 9 Noroeste 12 Noroeste 0 -- -- 91
2020-04-01 22:00:00 11 8 Noroeste 18 Norte 0.2 -- -- 90
2020-04-01 21:00:00 11.7 11 Noroeste 28 Noroeste 1.4 -- -- 89
2020-04-01 20:00:00 13.7 14 Norte 34 Noroeste 0 -- -- 73
2020-04-01 19:00:00 17.6 16 Noroeste 34 Oeste 0 -- -- 57
2020-04-01 18:00:00 17.4 17 Noroeste 35 Oeste 0 -- -- 55
2020-04-01 17:00:00 17.3 18 Oeste 33 Noroeste 0 -- -- 49
2020-04-01 16:00:00 18.1 19 Oeste 40 Oeste 0 -- -- 52
2020-04-01 15:00:00 17.6 15 Oeste 31 Oeste 0.2 -- -- 57
2020-04-01 14:00:00 17.1 12 Noroeste 28 Oeste 0 -- -- 62
2020-04-01 13:00:00 15.8 12 Noroeste 25 Noroeste 0 -- -- 67
2020-04-01 12:00:00 14.3 5 Oeste 18 Oeste 0 -- -- 78
2020-04-01 11:00:00 13.4 7 Oeste 19 Noroeste 0 -- -- 82
2020-04-01 10:00:00 12.2 8 Noroeste 15 Noroeste 0 -- -- 90
2020-04-01 09:00:00 11.5 8 Noroeste 15 Noroeste 0 -- -- 91
2020-04-01 08:00:00 11.1 9 Noroeste 13 Noroeste 0 -- -- 90
2020-04-01 07:00:00 11.3 10 Noroeste 15 Noroeste 0 -- -- 91
2020-04-01 06:00:00 11.7 9 Noroeste 12 Noroeste 0 -- -- 93
2020-04-01 05:00:00 11.9 7 Noroeste 13 Norte 0 -- -- 93
2020-04-01 04:00:00 12.1 8 Noroeste 12 Noroeste 0 -- -- 92
2020-04-01 03:00:00 12.3 6 Noroeste 12 Oeste 0 -- -- 93
2020-04-01 02:00:00 12.9 8 Oeste 12 Oeste 0.2 -- -- 92
2020-04-01 01:00:00 12.6 7 Noroeste 10 Noroeste 0 -- -- 92
2020-04-01 00:00:00 12.7 4 Oeste 9 Oeste 0 -- -- 92
2020-03-31 23:00:00 13.1 4 Oeste 7 Noroeste 0.4 -- -- 92
2020-03-31 22:00:00 13.3 7 Noroeste 13 Norte 0 -- -- 91
2020-03-31 21:00:00 14 5 Oeste 19 Oeste 1.4 -- -- 89
2020-03-31 20:00:00 15.1 13 Oeste 29 Oeste 0 -- -- 82
2020-03-31 19:00:00 16.5 15 Oeste 29 Oeste 0 -- -- 76
2020-03-31 18:00:00 15.7 14 Oeste 36 Sudoeste 0.4 -- -- 85
2020-03-31 17:00:00 16.6 18 Sudoeste 37 Sudoeste 0 -- -- 76
2020-03-31 16:00:00 16.8 15 Sudoeste 33 Sudoeste 0 -- -- 78
2020-03-31 15:00:00 16.5 20 Sudoeste 29 Sudoeste 0 -- -- 81
2020-03-31 14:00:00 16.5 10 Oeste 28 Sudoeste 0 -- -- 85
2020-03-31 13:00:00 14.3 16 Oeste 31 Oeste 1.4 -- -- 90
2020-03-31 12:00:00 14.4 8 Oeste 20 Oeste 1 -- -- 94
2020-03-31 11:00:00 13.8 4 Sudoeste 14 Sudoeste 0.2 -- -- 96
2020-03-31 10:00:00 13.4 6 Sudoeste 15 Oeste 0.4 -- -- 96
2020-03-31 09:00:00 12.8 9 Oeste 18 Sudoeste 0.2 -- -- 96
2020-03-31 08:00:00 13.1 6 Sur 14 Sur 0.8 -- -- 96
2020-03-31 07:00:00 12.1 3 Norte 9 Nordeste 2.2 -- -- 96
2020-03-31 06:00:00 12 3 Este 17 Sudeste 0.6 -- -- 95
2020-03-31 05:00:00 12.2 6 Este 16 Sudeste 4 -- -- 94
2020-03-31 04:00:00 12.2 8 Sudeste 18 Sudeste 2.2 -- -- 94
2020-03-31 03:00:00 12.5 4 Sudoeste 24 Sudeste 2.4 -- -- 94
2020-03-31 02:00:00 12.4 6 Sur 26 Sur 5.2 -- -- 92
2020-03-31 01:00:00 13.3 12 Sur 23 Sur 1.8 -- -- 90
2020-03-31 00:00:00 14.1 6 Sur 14 Sur 0.4 -- -- 86
2020-03-30 23:00:00 14.3 4 Sur 17 Sudoeste 0 -- -- 84
2020-03-30 22:00:00 14.7 4 Sudoeste 16 Sur 0 -- -- 71
2020-03-30 21:00:00 15.5 5 Sudoeste 9 Noroeste 0 -- -- 70
2020-03-30 20:00:00 16.4 8 Oeste 14 Noroeste 0 -- -- 65
2020-03-30 19:00:00 17.6 7 Noroeste 25 Noroeste 0 -- -- 61
2020-03-30 18:00:00 18 17 Noroeste 26 Noroeste 0 -- -- 56
2020-03-30 17:00:00 19.1 14 Oeste 25 Oeste 0 -- -- 53
2020-03-30 16:00:00 18.3 7 Sudoeste 22 Sur 0 -- -- 62
2020-03-30 15:00:00 18.1 6 Sudoeste 17 Sudoeste 0 -- -- 66
2020-03-30 14:00:00 18.1 8 Oeste 21 Oeste 0 -- -- 61
2020-03-30 13:00:00 17.3 9 Oeste 23 Noroeste 0 -- -- 64
2020-03-30 12:00:00 15.8 17 Noroeste 26 Oeste 0 -- -- 72
2020-03-30 11:00:00 15.3 3 Norte 18 Oeste 0 -- -- 73
2020-03-30 10:00:00 13.3 9 Noroeste 21 Norte 0 -- -- 76
2020-03-30 09:00:00 12.1 12 Noroeste 23 Noroeste 0 -- -- 82
2020-03-30 08:00:00 11 17 Noroeste 24 Noroeste 0 -- -- 87
2020-03-30 07:00:00 11.1 17 Noroeste 24 Noroeste 0 -- -- 87
2020-03-30 06:00:00 11.4 15 Noroeste 22 Noroeste 0 -- -- 86
2020-03-30 05:00:00 12 8 Noroeste 16 Noroeste 0 -- -- 84
2020-03-30 04:00:00 12.7 5 Noroeste 9 Noroeste 0 -- -- 86
2020-03-30 03:00:00 13 6 Norte 14 Norte 0 -- -- 86
2020-03-30 02:00:00 12.4 2 Norte 10 Noroeste 0 -- -- 86
2020-03-30 01:00:00 12.7 0 Calma 5 Noroeste 0 -- -- 85
2020-03-30 00:00:00 13.6 0 Calma 10 Noroeste 0 -- -- 83
2020-03-29 23:00:00 13.8 3 Sudoeste 7 Oeste 0 -- -- 83
2020-03-29 22:00:00 13.9 4 Oeste 15 Oeste 0 -- -- 81
2020-03-29 21:00:00 14.5 6 Sudoeste 10 Sudoeste 0 -- -- 78
2020-03-29 20:00:00 16 2 Sur 10 Sudoeste 0 -- -- 69
2020-03-29 19:00:00 16.3 6 Sur 13 Sudeste 0 -- -- 68
2020-03-29 18:00:00 17.5 5 Sur 14 Sur 0 -- -- 62
2020-03-29 17:00:00 17.6 9 Sur 17 Sur 0 -- -- 63
2020-03-29 16:00:00 17.4 10 Sur 20 Sur 0 -- -- 63
2020-03-29 15:00:00 17.1 10 Sur 17 Sur 0 -- -- 66
2020-03-29 14:00:00 16.4 11 Sur 18 Sudeste 0 -- -- 68
2020-03-29 13:00:00 16.4 9 Sur 19 Sudeste 0 -- -- 68
2020-03-29 12:00:00 15.9 8 Sur 17 Sur 0 -- -- 69
2020-03-29 11:00:00 15.4 7 Sur 14 Sudeste 0 -- -- 73
2020-03-29 10:00:00 14.2 4 Este 7 Este 0 -- -- 76
2020-03-29 09:00:00 11.2 0 Calma 5 Sudeste 0 -- -- 88
2020-03-29 08:00:00 10.6 3 Nordeste 8 Este 0 -- -- 87
2020-03-29 07:00:00 10.5 2 Nordeste 9 Nordeste 0 -- -- 87
2020-03-29 06:00:00 10.8 2 Nordeste 7 Este 0 -- -- 87
2020-03-29 05:00:00 11 0 Calma 10 Nordeste 0 -- -- 86
2020-03-29 03:00:00 11.7 4 Este 12 Sudeste 0 -- -- 85
2020-03-29 01:00:00 11.6 3 Este 11 Sudeste 0 -- -- 85
2020-03-29 00:00:00 11.7 3 Este 13 Este 0 -- -- 85
2020-03-28 23:00:00 12.2 4 Este 20 Sudeste 0 -- -- 84
2020-03-28 22:00:00 13.1 14 Sudeste 27 Sudeste 0 -- -- 81
2020-03-28 21:00:00 13.3 15 Sudeste 26 Sudeste 0 -- -- 82
2020-03-28 20:00:00 13.2 14 Sudeste 23 Sudeste 0 -- -- 82
2020-03-28 19:00:00 13.8 9 Sudeste 27 Sudeste 0 -- -- 79
2020-03-28 18:00:00 13.9 13 Sudeste 27 Sudeste 0 -- -- 79
2020-03-28 17:00:00 13.7 13 Sudeste 29 Sudeste 0 -- -- 81
2020-03-28 16:00:00 13 18 Sudeste 35 Este 0 -- -- 86
2020-03-28 15:00:00 13.5 16 Sudeste 30 Sudeste 0 -- -- 87
2020-03-28 14:00:00 13.6 16 Sudeste 35 Sudeste 0.6 -- -- 89
2020-03-28 13:00:00 16 19 Sur 33 Sur 0 -- -- 82
2020-03-28 12:00:00 16.2 14 Sudeste 28 Este 0 -- -- 80
2020-03-28 11:00:00 15.6 13 Sudeste 29 Sudeste 0 -- -- 81
2020-03-28 10:00:00 15.4 14 Sudeste 23 Sudeste 0 -- -- 75
2020-03-28 09:00:00 14.4 3 Nordeste 10 Noroeste 0 -- -- 74
2020-03-28 08:00:00 10.5 6 Noroeste 9 Noroeste 0 -- -- 89
2020-03-28 07:00:00 9.5 6 Noroeste 10 Noroeste 0 -- -- 89
2020-03-28 06:00:00 9.7 8 Noroeste 12 Noroeste 0 -- -- 88
2020-03-28 05:00:00 9.8 6 Noroeste 13 Noroeste 0 -- -- 87
2020-03-28 04:00:00 10.1 8 Noroeste 12 Noroeste 0 -- -- 86
2020-03-28 03:00:00 11 9 Noroeste 15 Noroeste 0 -- -- 84
2020-03-28 02:00:00 12.6 11 Noroeste 16 Noroeste 0 -- -- 79
2020-03-28 01:00:00 13.7 4 Oeste 9 Noroeste 0 -- -- 82
2020-03-28 00:00:00 13.2 7 Noroeste 13 Noroeste 0 -- -- 80
2020-03-27 23:00:00 13 5 Norte 10 Norte 0 -- -- 79
2020-03-27 22:00:00 13.2 3 Norte 10 Noroeste 0 -- -- 77
2020-03-27 21:00:00 14.6 4 Noroeste 10 Nordeste 0 -- -- 81
2020-03-27 20:00:00 15.2 3 Nordeste 21 Noroeste 0 -- -- 73
2020-03-27 19:00:00 17.1 17 Oeste 25 Oeste 0 -- -- 57
2020-03-27 18:00:00 19.4 13 Noroeste 26 Oeste 0 -- -- 51
2020-03-27 17:00:00 18.4 14 Oeste 27 Oeste 0 -- -- 56
2020-03-27 16:00:00 19 16 Oeste 28 Oeste 0 -- -- 54
2020-03-27 15:00:00 18.1 12 Noroeste 24 Noroeste 0 -- -- 58
2020-03-27 14:00:00 17.9 15 Norte 31 Norte 0 -- -- 56
2020-03-27 13:00:00 17.4 12 Noroeste 25 Norte 0 -- -- 63
2020-03-27 12:00:00 15.6 11 Norte 26 Oeste 0 -- -- 69
2020-03-27 11:00:00 14.1 17 Oeste 29 Oeste 0 -- -- 74
2020-03-27 10:00:00 13.6 14 Noroeste 22 Noroeste 0 -- -- 79
2020-03-27 09:00:00 12.9 12 Noroeste 18 Noroeste 0 -- -- 81
2020-03-27 08:00:00 10.8 4 Sudoeste 9 Norte 0 -- -- 85
2020-03-27 07:00:00 10.2 5 Norte 21 Noroeste 0 -- -- 85
2020-03-27 06:00:00 10.5 14 Noroeste 20 Noroeste 0 -- -- 88
2020-03-27 05:00:00 10.6 12 Noroeste 19 Noroeste 0 -- -- 88
2020-03-27 04:00:00 11 15 Noroeste 23 Noroeste 0 -- -- 88
2020-03-27 03:00:00 11.6 13 Noroeste 18 Noroeste 0 -- -- 87
2020-03-27 02:00:00 11.8 11 Noroeste 13 Noroeste 0 -- -- 87
2020-03-27 01:00:00 12.3 5 Noroeste 14 Noroeste 0 -- -- 84
2020-03-27 00:00:00 12.6 10 Noroeste 14 Noroeste 0 -- -- 85
2020-03-26 23:00:00 13.4 9 Oeste 18 Oeste 0 -- -- 78
2020-03-26 22:00:00 14.1 12 Noroeste 22 Oeste 0 -- -- 71
2020-03-26 21:00:00 14.7 12 Oeste 26 Noroeste 0 -- -- 70
2020-03-26 20:00:00 16 17 Oeste 28 Noroeste 0 -- -- 67
2020-03-26 19:00:00 18 17 Oeste 40 Noroeste 0 -- -- 60
2020-03-26 18:00:00 19.7 24 Noroeste 43 Noroeste 0 -- -- 54
2020-03-26 17:00:00 19.8 28 Oeste 44 Oeste 0 -- -- 56
2020-03-26 16:00:00 20.3 33 Noroeste 50 Oeste 0 -- -- 51
2020-03-26 15:00:00 20.3 30 Noroeste 47 Noroeste 0 -- -- 55
2020-03-26 14:00:00 20.2 23 Noroeste 45 Oeste 0 -- -- 55
2020-03-26 13:00:00 18.9 25 Noroeste 42 Noroeste 0 -- -- 64
2020-03-26 12:00:00 18.4 24 Noroeste 50 Norte 0 -- -- 64
2020-03-26 11:00:00 16.9 21 Noroeste 34 Oeste 0 -- -- 69
2020-03-26 10:00:00 14.9 19 Noroeste 38 Noroeste 0 -- -- 78
2020-03-26 09:00:00 12.8 25 Noroeste 39 Noroeste 0 -- -- 83
2020-03-26 08:00:00 10.6 15 Noroeste 23 Noroeste 0 -- -- 86
2020-03-26 07:00:00 10.8 12 Norte 19 Norte 0 -- -- 85
2020-03-26 06:00:00 10.9 6 Este 25 Noroeste 0 -- -- 84
2020-03-26 05:00:00 9.6 12 Noroeste 21 Noroeste 0 -- -- 88
2020-03-26 04:00:00 10 11 Noroeste 21 Noroeste 0 -- -- 86
2020-03-26 03:00:00 10.1 13 Noroeste 20 Noroeste 0 -- -- 85
2020-03-26 02:00:00 10.3 10 Noroeste 14 Noroeste 0 -- -- 83
2020-03-26 01:00:00 10.2 9 Noroeste 12 Noroeste 0 -- -- 84
2020-03-26 00:00:00 9.9 9 Noroeste 14 Noroeste 0 -- -- 85
2020-03-25 23:00:00 10 7 Noroeste 10 Norte 0 -- -- 85
2020-03-25 22:00:00 10.8 4 Norte 8 Norte 0 -- -- 83
2020-03-25 21:00:00 11.5 4 Nordeste 6 Nordeste 0 -- -- 82
2020-03-25 20:00:00 12.6 2 Sur 8 Sur 0 -- -- 78
2020-03-25 19:00:00 14 6 Sudeste 15 Este 0 -- -- 72
2020-03-25 18:00:00 14.7 11 Sudeste 19 Sudeste 0 -- -- 68
2020-03-25 17:00:00 15.3 10 Sudeste 19 Sudeste 0 -- -- 65
2020-03-25 16:00:00 14.4 11 Sudeste 23 Sudeste 0 -- -- 69
2020-03-25 15:00:00 14.3 8 Sudeste 21 Este 0 -- -- 74
2020-03-25 14:00:00 14 9 Este 22 Este 0 -- -- 77
2020-03-25 13:00:00 12.7 7 Este 30 Sudeste 0 -- -- 84
2020-03-25 12:00:00 13.7 5 Sudeste 15 Sudeste 0 -- -- 79
2020-03-25 11:00:00 13.2 6 Este 15 Sudeste 0 -- -- 84
2020-03-25 10:00:00 12.3 4 Este 9 Sudeste 0 -- -- 90
2020-03-25 09:00:00 11.8 3 Sudeste 15 Este 0.4 -- -- 92
2020-03-25 08:00:00 11.7 4 Este 15 Este 2.8 -- -- 93
2020-03-25 07:00:00 12.7 8 Este 17 Sur 0.6 -- -- 88
2020-03-25 06:00:00 12.9 0 Calma 9 Sur 0 -- -- 92
2020-03-25 05:00:00 13 5 Sudeste 15 Sur 0.2 -- -- 91
2020-03-25 04:00:00 13 4 Sur 8 Sudoeste 0.2 -- -- 91
2020-03-25 03:00:00 12.9 2 Noroeste 4 Norte 0 -- -- 90
2020-03-25 02:00:00 13 3 Nordeste 8 Noroeste 0 -- -- 92
2020-03-25 01:00:00 13.1 6 Noroeste 10 Noroeste 0 -- -- 92
2020-03-25 00:00:00 13.3 4 Norte 5 Nordeste 0 -- -- 91
2020-03-24 23:00:00 13.5 4 Sur 8 Sur 0 -- -- 89
2020-03-24 22:00:00 13.6 0 Calma 6 Sur 0 -- -- 88
2020-03-24 21:00:00 13.7 5 Sur 9 Sur 0 -- -- 87
2020-03-24 20:00:00 13.8 4 Nordeste 8 Este 0 -- -- 85
2020-03-24 19:00:00 14 3 Sudoeste 17 Noroeste 0 -- -- 84
2020-03-24 18:00:00 13.9 7 Noroeste 17 Noroeste 0 -- -- 86
2020-03-24 17:00:00 13.5 7 Noroeste 24 Oeste 0 -- -- 88
2020-03-24 16:00:00 13.3 14 Noroeste 22 Oeste 0 -- -- 87
2020-03-24 15:00:00 13.2 12 Noroeste 25 Noroeste 0.4 -- -- 90
2020-03-24 14:00:00 13.4 16 Noroeste 28 Oeste 0 -- -- 90
2020-03-24 13:00:00 15.3 4 Noroeste 15 Noroeste 0.2 -- -- 83
2020-03-24 12:00:00 13.9 8 Oeste 16 Oeste 0 -- -- 87
2020-03-24 11:00:00 12.9 7 Oeste 12 Oeste 0.6 -- -- 91
2020-03-24 10:00:00 12.5 5 Noroeste 24 Noroeste 0.2 -- -- 91
2020-03-24 09:00:00 11.4 17 Noroeste 27 Noroeste 0.6 -- -- 92
2020-03-24 08:00:00 11.1 17 Norte 26 Noroeste 3.2 -- -- 91
2020-03-24 07:00:00 11.5 17 Noroeste 27 Oeste 1.6 -- -- 87
2020-03-24 06:00:00 12.9 10 Noroeste 23 Noroeste 0 -- -- 77
2020-03-24 05:00:00 12.8 14 Noroeste 20 Noroeste 0 -- -- 75
2020-03-24 04:00:00 12.3 6 Noroeste 15 Noroeste 0 -- -- 79
2020-03-24 03:00:00 12.4 10 Noroeste 13 Noroeste 0 -- -- 78
2020-03-24 02:00:00 13 4 Norte 10 Sudeste 0 -- -- 77
2020-03-24 01:00:00 13.9 7 Sudeste 31 Sudeste 0 -- -- 74
2020-03-24 00:00:00 14.2 11 Sudeste 20 Sudeste 0 -- -- 67
2020-03-23 23:00:00 13.4 5 Este 14 Sudeste 0 -- -- 70
2020-03-23 22:00:00 12.2 4 Nordeste 9 Nordeste 0 -- -- 79
2020-03-23 21:00:00 12.6 8 Sudeste 16 Sudeste 0 -- -- 80
2020-03-23 20:00:00 12.7 9 Sudeste 16 Sudeste 0.2 -- -- 81
2020-03-23 19:00:00 12.6 4 Sudeste 21 Este 0.4 -- -- 82
2020-03-23 18:00:00 13.1 6 Este 25 Sudeste 0 -- -- 74
2020-03-23 17:00:00 12.5 12 Sudeste 34 Sudeste 0 -- -- 78
2020-03-23 16:00:00 13.6 24 Sudeste 40 Sudeste 0 -- -- 80
2020-03-23 15:00:00 13.6 20 Sudeste 39 Sudeste 0 -- -- 74
2020-03-23 14:00:00 13.8 22 Sudeste 38 Sudeste 0 -- -- 76
2020-03-23 13:00:00 14.8 22 Sudeste 37 Sudeste 0 -- -- 78
2020-03-23 12:00:00 14.5 13 Sudeste 24 Sudeste 0 -- -- 72
2020-03-23 11:00:00 12.8 10 Sudeste 21 Sudeste 0 -- -- 81
2020-03-23 10:00:00 11.7 4 Sudeste 9 Este 0 -- -- 86
2020-03-23 09:00:00 11.1 2 Nordeste 8 Nordeste 0 -- -- 88
2020-03-23 08:00:00 10 2 Norte 5 Nordeste 0 -- -- 91
2020-03-23 07:00:00 9.8 2 Norte 6 Norte 0 -- -- 90
2020-03-23 06:00:00 9.8 3 Nordeste 6 Este 0 -- -- 91
2020-03-23 05:00:00 9.8 2 Norte 8 Nordeste 0 -- -- 90
2020-03-23 04:00:00 9.8 5 Norte 8 Nordeste 0 -- -- 89
2020-03-23 03:00:00 9.9 4 Norte 5 Nordeste 0 -- -- 90
2020-03-23 02:00:00 10 3 Norte 6 Norte 0 -- -- 89
2020-03-23 01:00:00 10.3 2 Nordeste 6 Nordeste 0 -- -- 90
2020-03-23 00:00:00 10.6 3 Nordeste 8 Este 0 -- -- 91
2020-03-22 23:00:00 10.9 3 Nordeste 6 Nordeste 0 -- -- 91
2020-03-22 22:00:00 11.3 3 Nordeste 8 Nordeste 0 -- -- 91
2020-03-22 21:00:00 11.7 4 Nordeste 6 Nordeste 0 -- -- 92
2020-03-22 20:00:00 12 4 Norte 6 Norte 0 -- -- 90
2020-03-22 19:00:00 12.8 2 Este 7 Este 0 -- -- 90
2020-03-22 18:00:00 12.9 3 Sudeste 9 Sudeste 0.8 -- -- 89
2020-03-22 17:00:00 13.4 5 Sudeste 12 Sur 0 -- -- 84
2020-03-22 16:00:00 13.4 6 Sur 11 Sur 1 -- -- 83
2020-03-22 15:00:00 13.3 5 Sur 18 Sur 1 -- -- 82
2020-03-22 14:00:00 14.5 12 Sudoeste 22 Sur 0.2 -- -- 74
2020-03-22 13:00:00 14.3 10 Sur 19 Sur 0 -- -- 81
2020-03-22 12:00:00 13.4 7 Sur 15 Sur 0 -- -- 83
2020-03-22 11:00:00 12.9 6 Sur 12 Sudeste 0 -- -- 88
2020-03-22 10:00:00 11.3 2 Sudeste 5 Nordeste 0 -- -- 94
2020-03-22 09:00:00 10 3 Nordeste 4 Nordeste 0 -- -- 96
2020-03-22 08:00:00 9.4 3 Nordeste 5 Nordeste 0 -- -- 96
2020-03-22 07:00:00 9.2 3 Nordeste 4 Norte 0 -- -- 96
2020-03-22 06:00:00 9.3 2 Norte 5 Nordeste 0 -- -- 95
2020-03-22 05:00:00 9.8 3 Nordeste 4 Nordeste 0 -- -- 95
2020-03-22 04:00:00 9.7 0 Calma 5 Norte 0 -- -- 95
2020-03-22 03:00:00 9.7 3 Nordeste 6 Nordeste 0.4 -- -- 94
2020-03-22 02:00:00 9.9 3 Sudoeste 7 Sudoeste 0.2 -- -- 94
2020-03-22 01:00:00 10.1 6 Nordeste 12 Norte 1.2 -- -- 93
2020-03-22 00:00:00 10.6 4 Noroeste 8 Oeste 1.8 -- -- 93
2020-03-21 23:00:00 10.8 0 Calma 7 Noroeste 0.4 -- -- 93
2020-03-21 22:00:00 10.8 4 Norte 8 Noroeste 0 -- -- 92
2020-03-21 21:00:00 11.2 4 Noroeste 15 Oeste 0 -- -- 90
2020-03-21 20:00:00 11 5 Noroeste 7 Noroeste 0 -- -- 92
2020-03-21 19:00:00 11.9 2 Sudoeste 17 Oeste 0.2 -- -- 91
2020-03-21 18:00:00 11.1 9 Sudoeste 20 Sudoeste 1 -- -- 92
2020-03-21 17:00:00 10.9 3 Oeste 30 Oeste 1.6 -- -- 92
2020-03-21 16:00:00 11.5 15 Oeste 30 Oeste 2.2 -- -- 89
2020-03-21 15:00:00 13 12 Noroeste 44 Oeste 0.4 -- -- 81
2020-03-21 14:00:00 15 21 Sudoeste 36 Oeste 0.6 -- -- 67
2020-03-21 13:00:00 14.6 11 Sur 25 Sur 0 -- -- 80
2020-03-21 12:00:00 12.7 9 Sur 17 Sudoeste 0.8 -- -- 86
2020-03-21 11:00:00 13.2 9 Oeste 21 Noroeste 0.4 -- -- 82
2020-03-21 10:00:00 13.6 9 Norte 17 Noroeste 0 -- -- 78
2020-03-21 09:00:00 11.6 6 Noroeste 11 Norte 0 -- -- 91
2020-03-21 08:00:00 9.3 5 Noroeste 11 Norte 0 -- -- 94
2020-03-21 07:00:00 9.2 7 Noroeste 12 Noroeste 0 -- -- 93
2020-03-21 06:00:00 9.8 9 Noroeste 13 Noroeste 0.2 -- -- 92
2020-03-21 05:00:00 10.4 8 Noroeste 21 Noroeste 0 -- -- 92
2020-03-21 04:00:00 10.8 13 Noroeste 22 Noroeste 0 -- -- 93
2020-03-21 03:00:00 11.2 10 Noroeste 26 Noroeste 0 -- -- 93
2020-03-21 02:00:00 11.4 14 Noroeste 32 Oeste 3 -- -- 95
2020-03-21 01:00:00 13.3 15 Oeste 41 Sur 9.2 -- -- 95
2020-03-21 00:00:00 14.1 19 Sur 37 Sur 1 -- -- 95
2020-03-20 23:00:00 14.2 17 Sudeste 30 Sur 0.6 -- -- 94
2020-03-20 22:00:00 14.2 13 Sudeste 29 Sudeste 0 -- -- 94
2020-03-20 21:00:00 14.1 13 Sudeste 27 Sudeste 0.4 -- -- 93
2020-03-20 20:00:00 14.2 14 Sudeste 27 Sudeste 0 -- -- 91
2020-03-20 19:00:00 14.5 12 Sudeste 27 Sur 0 -- -- 86
2020-03-20 18:00:00 14.9 10 Sudeste 19 Sudeste 0 -- -- 81
2020-03-20 17:00:00 15.4 11 Sudeste 19 Este 0.2 -- -- 78
2020-03-20 16:00:00 15.1 10 Sudeste 19 Sudeste 0 -- -- 80
2020-03-20 15:00:00 14.1 8 Sudeste 27 Sudeste 0 -- -- 87
2020-03-20 14:00:00 14.2 12 Sudeste 25 Sudeste 0 -- -- 87
2020-03-20 13:00:00 14.1 14 Sudeste 27 Sudeste 0 -- -- 87
2020-03-20 12:00:00 13.6 13 Sudeste 23 Sudeste 0 -- -- 92
2020-03-20 11:00:00 12.8 5 Este 24 Sudeste 0.2 -- -- 93
2020-03-20 10:00:00 12.9 6 Este 29 Sudeste 0.4 -- -- 91
2020-03-20 09:00:00 13.7 13 Sudeste 38 Sudeste 0.2 -- -- 88
2020-03-20 08:00:00 14 12 Sudeste 22 Sudeste 0 -- -- 81
2020-03-20 07:00:00 14.1 10 Sudeste 31 Sudeste 0 -- -- 80
2020-03-20 06:00:00 14.2 18 Sudeste 30 Sudeste 0 -- -- 79
2020-03-20 05:00:00 14.3 17 Sudeste 30 Sudeste 0 -- -- 79
2020-03-20 04:00:00 14 9 Sudeste 26 Este 0 -- -- 75
2020-03-20 03:00:00 14.1 17 Sudeste 35 Sudeste 0 -- -- 82
2020-03-20 02:00:00 14.3 18 Sudeste 35 Sudeste 0 -- -- 81
2020-03-20 01:00:00 14.6 16 Sudeste 41 Sudeste 0 -- -- 81
2020-03-20 00:00:00 14.5 22 Sudeste 38 Sudeste 0 -- -- 83
2020-03-19 23:00:00 14.6 22 Sudeste 36 Sudeste 0 -- -- 84
2020-03-19 22:00:00 14.5 21 Sudeste 35 Sudeste 0 -- -- 86
2020-03-19 21:00:00 14.6 21 Sudeste 39 Este 0 -- -- 83
2020-03-19 20:00:00 14.7 25 Sudeste 42 Sudeste 0 -- -- 81
2020-03-19 19:00:00 14.8 24 Sudeste 38 Este 0 -- -- 80
2020-03-19 18:00:00 14.9 20 Sudeste 39 Sudeste 0 -- -- 82
2020-03-19 17:00:00 15.5 20 Sudeste 40 Sudeste 0 -- -- 77
2020-03-19 16:00:00 15.1 17 Sudeste 37 Este 0 -- -- 78
2020-03-19 15:00:00 15 19 Sudeste 36 Sudeste 0 -- -- 79
2020-03-19 14:00:00 14.9 20 Sudeste 40 Sudeste 0 -- -- 79
2020-03-19 13:00:00 15.2 19 Sudeste 41 Sudeste 0 -- -- 79
2020-03-19 12:00:00 15.2 25 Sudeste 44 Este 0 -- -- 78
2020-03-19 11:00:00 15.3 22 Sudeste 43 Este 0 -- -- 77
2020-03-19 10:00:00 14.8 21 Sudeste 39 Este 0 -- -- 77
2020-03-19 09:00:00 14.7 16 Sudeste 39 Sudeste 0 -- -- 77
2020-03-19 08:00:00 14.6 16 Sudeste 37 Sudeste 0 -- -- 78
2020-03-19 07:00:00 14.6 14 Sudeste 33 Este 0 -- -- 78
2020-03-19 06:00:00 14.6 12 Sudeste 30 Este 0 -- -- 82
2020-03-19 05:00:00 14.6 15 Sudeste 32 Sudeste 0 -- -- 84
2020-03-19 04:00:00 14.6 19 Sudeste 32 Sudeste 0 -- -- 84
2020-03-19 03:00:00 14.6 15 Sudeste 32 Sudeste 0 -- -- 85
2020-03-19 02:00:00 14.6 20 Sudeste 36 Sudeste 0 -- -- 87
2020-03-19 01:00:00 14.8 24 Sudeste 41 Este 0 -- -- 85
2020-03-19 00:00:00 15 28 Sudeste 47 Este 0 -- -- 82
2020-03-18 23:00:00 15.3 22 Sudeste 37 Sudeste 0 -- -- 81
2020-03-18 22:00:00 15.3 22 Sudeste 35 Este 0 -- -- 78
2020-03-18 21:00:00 15.2 22 Sudeste 34 Este 0 -- -- 79
2020-03-18 20:00:00 15.3 19 Sudeste 37 Este 0 -- -- 79
2020-03-18 19:00:00 15.4 22 Sudeste 35 Sudeste 0 -- -- 78
2020-03-18 18:00:00 15.6 22 Sudeste 40 Sudeste 0 -- -- 77
2020-03-18 17:00:00 15.7 23 Sudeste 36 Sudeste 0 -- -- 78
2020-03-18 16:00:00 15.8 21 Sudeste 41 Este 0 -- -- 80
2020-03-18 15:00:00 15.6 15 Este 53 Sudeste 0 -- -- 80
2020-03-18 14:00:00 16.3 33 Sudeste 55 Sudeste 0 -- -- 76
2020-03-18 13:00:00 14.9 19 Sudeste 41 Este 0 -- -- 83
2020-03-18 12:00:00 15 24 Sudeste 45 Sudeste 0 -- -- 83
2020-03-18 11:00:00 15 23 Sudeste 45 Sudeste 0 -- -- 82
2020-03-18 10:00:00 15 24 Sudeste 49 Este 0 -- -- 81
2020-03-18 09:00:00 14.9 21 Sudeste 39 Este 0 -- -- 83
2020-03-18 08:00:00 15 21 Sudeste 43 Este 0 -- -- 84
2020-03-18 07:00:00 15.1 24 Sudeste 39 Sudeste 0 -- -- 84
2020-03-18 06:00:00 15 15 Sudeste 43 Sudeste 0 -- -- 85
2020-03-18 05:00:00 15.4 24 Sudeste 48 Este 0 -- -- 81
2020-03-18 04:00:00 15.1 26 Sudeste 48 Este 0 -- -- 85
2020-03-18 03:00:00 15.1 28 Sudeste 55 Este 0 -- -- 84
2020-03-18 02:00:00 15 27 Sudeste 54 Sudeste 0 -- -- 87
2020-03-18 01:00:00 15 27 Sudeste 56 Este 0.2 -- -- 89
2020-03-18 00:00:00 14.2 20 Sudeste 41 Sudeste 1.8 -- -- 91
2020-03-17 23:00:00 14.7 20 Sudeste 43 Sudeste 0 -- -- 83
2020-03-17 22:00:00 14.5 25 Sudeste 42 Este 0 -- -- 81
2020-03-17 21:00:00 13.8 15 Sudeste 33 Sudeste 0 -- -- 86
2020-03-17 20:00:00 13.5 10 Sudeste 35 Sudeste 0 -- -- 82
2020-03-17 19:00:00 13.7 23 Sudeste 38 Sudeste 0 -- -- 84
2020-03-17 18:00:00 13.5 20 Sudeste 45 Sudeste 0.2 -- -- 86
2020-03-17 17:00:00 14.6 26 Sudeste 52 Este 0 -- -- 78
2020-03-17 16:00:00 14.9 32 Sudeste 53 Sudeste 0 -- -- 71
2020-03-17 15:00:00 15.4 36 Sudeste 57 Sudeste 0 -- -- 65
2020-03-17 14:00:00 14.4 23 Sudeste 42 Sudeste 0 -- -- 71
2020-03-17 13:00:00 13.6 19 Sudeste 44 Sudeste 0 -- -- 70
2020-03-17 12:00:00 13 19 Sudeste 35 Sudeste 0 -- -- 64
2020-03-17 11:00:00 11.8 9 Sudeste 21 Sudeste 0 -- -- 74
2020-03-17 10:00:00 9.4 5 Nordeste 15 Nordeste 0.2 -- -- 87
2020-03-17 09:00:00 8.4 10 Norte 17 Este 0.6 -- -- 91
2020-03-17 08:00:00 8.3 6 Este 18 Este 3.6 -- -- 89
2020-03-17 07:00:00 8.3 4 Sudeste 17 Este 0.8 -- -- 87
2020-03-17 06:00:00 8.4 9 Noroeste 40 Oeste 2.8 -- -- 85
2020-03-17 05:00:00 10 10 Noroeste 15 Noroeste 0 -- -- 65
2020-03-17 04:00:00 9.8 3 Norte 15 Norte 0 -- -- 64
2020-03-17 03:00:00 10.1 8 Noroeste 16 Oeste 0 -- -- 61
2020-03-17 02:00:00 10 8 Noroeste 13 Oeste 0 -- -- 61
2020-03-17 01:00:00 9.9 6 Noroeste 15 Noroeste 0 -- -- 60
2020-03-17 00:00:00 11.3 10 Oeste 17 Norte 0 -- -- 55
2020-03-16 23:00:00 12.4 15 Norte 23 Noroeste 0 -- -- 51
2020-03-16 22:00:00 12.7 6 Noroeste 12 Noroeste 0 -- -- 49
2020-03-16 21:00:00 13 8 Oeste 12 Oeste 0 -- -- 47
2020-03-16 20:00:00 13.3 5 Noroeste 25 Oeste 0 -- -- 46
2020-03-16 19:00:00 15.5 12 Norte 32 Noroeste 0 -- -- 40
2020-03-16 18:00:00 17.4 14 Norte 42 Norte 0 -- -- 37
2020-03-16 17:00:00 17.7 24 Norte 48 Oeste 0 -- -- 34
2020-03-16 16:00:00 16.6 28 Oeste 57 Noroeste 0 -- -- 44
2020-03-16 15:00:00 17.1 26 Noroeste 50 Norte 0 -- -- 36
2020-03-16 14:00:00 15.8 26 Noroeste 48 Noroeste 0 -- -- 36
2020-03-16 13:00:00 15.3 29 Noroeste 47 Noroeste 0 -- -- 34
2020-03-16 12:00:00 14.6 23 Noroeste 42 Norte 0 -- -- 39
2020-03-16 11:00:00 14.3 23 Norte 48 Noroeste 0 -- -- 37
2020-03-16 10:00:00 11.7 17 Noroeste 43 Norte 0 -- -- 52
2020-03-16 09:00:00 11.9 24 Noroeste 39 Norte 0 -- -- 54
2020-03-16 08:00:00 12 27 Noroeste 41 Noroeste 0 -- -- 59
2020-03-16 07:00:00 12.3 16 Noroeste 27 Noroeste 0 -- -- 68
2020-03-16 06:00:00 12.8 15 Noroeste 22 Noroeste 0 -- -- 84
2020-03-16 05:00:00 13.1 13 Noroeste 22 Noroeste 0 -- -- 92
2020-03-16 04:00:00 13.4 8 Noroeste 18 Noroeste 0 -- -- 90
2020-03-16 03:00:00 13.3 12 Norte 20 Noroeste 0 -- -- 90
2020-03-16 02:00:00 13.6 9 Noroeste 15 Norte 0 -- -- 88
2020-03-16 01:00:00 13.5 9 Norte 15 Noroeste 0 -- -- 90
2020-03-16 00:00:00 12.9 10 Noroeste 13 Noroeste 0 -- -- 88
2020-03-15 23:00:00 13.5 4 Norte 8 Noroeste 0 -- -- 87
2020-03-15 22:00:00 14.5 0 Calma 5 Sudeste 0 -- -- 88
2020-03-15 21:00:00 14.6 6 Sudeste 13 Sudeste 0 -- -- 88
2020-03-15 20:00:00 14.7 7 Sudeste 17 Sudeste 0 -- -- 87
2020-03-15 19:00:00 15.3 9 Sudeste 19 Sudeste 0 -- -- 83
2020-03-15 18:00:00 16.2 9 Sudeste 23 Sudeste 0 -- -- 79
2020-03-15 17:00:00 16.1 14 Sudeste 22 Este 0 -- -- 79
2020-03-15 16:00:00 15.9 14 Sudeste 27 Sudeste 0 -- -- 80
2020-03-15 15:00:00 16.8 17 Sudeste 31 Sudeste 0 -- -- 75
2020-03-15 14:00:00 17.1 19 Sudeste 33 Sudeste 0 -- -- 75
2020-03-15 13:00:00 16.8 21 Sudeste 32 Este 0 -- -- 76
2020-03-15 12:00:00 16.2 20 Sudeste 34 Este 0 -- -- 80
2020-03-15 11:00:00 15.5 20 Sudeste 32 Sudeste 0 -- -- 84
2020-03-15 10:00:00 15.2 14 Sudeste 26 Este 0 -- -- 86
2020-03-15 09:00:00 14.6 12 Sudeste 25 Sudeste 0 -- -- 87
2020-03-15 08:00:00 14.3 10 Sudeste 17 Sudeste 0 -- -- 86
2020-03-15 07:00:00 14.3 8 Sudeste 19 Este 0 -- -- 84
2020-03-15 06:00:00 14.4 10 Sudeste 19 Este 0 -- -- 84
2020-03-15 05:00:00 14.2 6 Este 16 Sudeste 0 -- -- 86
2020-03-15 04:00:00 14.1 8 Sudeste 21 Este 0 -- -- 88
2020-03-15 03:00:00 14 11 Sudeste 20 Sudeste 0 -- -- 90
2020-03-15 02:00:00 13.8 9 Sudeste 21 Este 0 -- -- 93
2020-03-15 01:00:00 13.9 12 Sudeste 18 Sudeste 0 -- -- 93
2020-03-15 00:00:00 13.5 9 Sudeste 15 Sudeste 0 -- -- 91
2020-03-14 23:00:00 13.9 8 Sudeste 16 Sudeste 0 -- -- 90
2020-03-14 22:00:00 13.9 7 Sudeste 12 Sudeste 0 -- -- 89
2020-03-14 21:00:00 13.9 2 Nordeste 9 Sudeste 0 -- -- 87
2020-03-14 20:00:00 14.6 5 Sudeste 15 Sudeste 0 -- -- 87
2020-03-14 19:00:00 15.6 11 Sudeste 16 Este 0 -- -- 82
2020-03-14 18:00:00 17.2 10 Sudeste 19 Sudeste 0 -- -- 74
2020-03-14 17:00:00 17.7 10 Sudeste 23 Sudeste 0 -- -- 73
2020-03-14 16:00:00 17 14 Sudeste 24 Este 0 -- -- 75
2020-03-14 15:00:00 17.4 13 Sudeste 26 Sudeste 0 -- -- 73
2020-03-14 14:00:00 17.6 14 Sudeste 27 Sudeste 0 -- -- 73
2020-03-14 13:00:00 17.3 16 Sudeste 26 Sudeste 0 -- -- 75
2020-03-14 12:00:00 16.9 14 Sudeste 27 Sudeste 0 -- -- 74
2020-03-14 11:00:00 16.8 13 Sudeste 24 Este 0 -- -- 74
2020-03-14 10:00:00 16.4 12 Sudeste 20 Sudeste 0 -- -- 76
2020-03-14 09:00:00 15 0 Calma 6 Sudeste 0 -- -- 86
2020-03-14 08:00:00 13.2 2 Este 4 Sudeste 0 -- -- 91
2020-03-14 07:00:00 13.1 0 Calma 6 Nordeste 0 -- -- 90
2020-03-14 06:00:00 14 2 Sudeste 12 Este 0 -- -- 89
2020-03-14 05:00:00 14.6 3 Este 14 Este 0 -- -- 90
2020-03-14 04:00:00 14.7 5 Este 15 Nordeste 0 -- -- 90
2020-03-14 03:00:00 14.9 5 Este 14 Sudeste 0 -- -- 91
2020-03-14 02:00:00 15 5 Este 12 Este 0 -- -- 91
2020-03-14 01:00:00 15.1 3 Nordeste 14 Sudeste 0 -- -- 91
2020-03-14 00:00:00 15 4 Nordeste 8 Este 0 -- -- 90
2020-03-13 23:00:00 15.2 3 Este 7 Este 0 -- -- 89
2020-03-13 22:00:00 15.4 3 Este 14 Este 0 -- -- 85
2020-03-13 21:00:00 16 2 Sudeste 16 Sudeste 0 -- -- 75
2020-03-13 20:00:00 16.9 6 Sudeste 11 Sudeste 0 -- -- 68
2020-03-13 19:00:00 20.4 7 Sur 32 Noroeste 0 -- -- 63
2020-03-13 18:00:00 22.6 23 Noroeste 36 Noroeste 0 -- -- 53
2020-03-13 17:00:00 23.8 24 Noroeste 39 Oeste 0 -- -- 48
2020-03-13 16:00:00 23.7 23 Noroeste 35 Noroeste 0 -- -- 44
2020-03-13 15:00:00 22.1 21 Noroeste 37 Oeste 0 -- -- 52
2020-03-13 14:00:00 20.8 28 Noroeste 45 Noroeste 0 -- -- 56
2020-03-13 13:00:00 19.1 32 Noroeste 44 Noroeste 0 -- -- 61
2020-03-13 12:00:00 18.3 30 Noroeste 43 Oeste 0 -- -- 62
2020-03-13 11:00:00 16.7 29 Noroeste 45 Noroeste 0 -- -- 69
2020-03-13 10:00:00 15.3 32 Noroeste 49 Noroeste 0 -- -- 72
2020-03-13 09:00:00 14 26 Noroeste 42 Norte 0 -- -- 77
2020-03-13 08:00:00 13.7 30 Noroeste 44 Noroeste 0 -- -- 78
2020-03-13 07:00:00 14 31 Noroeste 40 Noroeste 0 -- -- 76
2020-03-13 06:00:00 14.3 28 Noroeste 37 Noroeste 0 -- -- 73
2020-03-13 05:00:00 14.9 9 Noroeste 28 Noroeste 0 -- -- 64
2020-03-13 04:00:00 16 17 Noroeste 26 Noroeste 0 -- -- 60
2020-03-13 03:00:00 16.2 15 Noroeste 22 Noroeste 0 -- -- 63
2020-03-13 02:00:00 16.8 9 Norte 19 Nordeste 0 -- -- 60
2020-03-13 01:00:00 17.2 8 Norte 14 Norte 0 -- -- 60
2020-03-13 00:00:00 18 8 Norte 16 Nordeste 0 -- -- 58
2020-03-12 23:00:00 19 9 Norte 21 Norte 0 -- -- 57
2020-03-12 22:00:00 19.8 8 Nordeste 19 Noroeste 0 -- -- 53
2020-03-12 21:00:00 19.7 5 Norte 9 Norte 0 -- -- 52
2020-03-12 20:00:00 19.9 3 Norte 6 Nordeste 0 -- -- 46
2020-03-12 19:00:00 23.1 2 Sudoeste 5 Nordeste 0 -- -- 40
2020-03-12 18:00:00 25.1 3 Este 10 Sur 0 -- -- 33
2020-03-12 17:00:00 26.3 3 Sudoeste 14 Sur 0 -- -- 33
2020-03-12 16:00:00 25 6 Sudeste 14 Este 0 -- -- 34
2020-03-12 15:00:00 24.2 6 Sudeste 18 Sur 0 -- -- 34
2020-03-12 14:00:00 23.2 6 Sur 17 Sudoeste 0 -- -- 37
2020-03-12 13:00:00 22.5 10 Sur 21 Sudeste 0 -- -- 39
2020-03-12 12:00:00 22 10 Sudeste 18 Sur 0 -- -- 38
2020-03-12 11:00:00 22.1 6 Sudeste 11 Este 0 -- -- 38
2020-03-12 10:00:00 19.7 3 Sudoeste 7 Sur 0 -- -- 52
2020-03-12 09:00:00 16.9 6 Noroeste 13 Noroeste 0 -- -- 57
2020-03-12 08:00:00 15.6 3 Sudoeste 6 Sur 0 -- -- 57
2020-03-12 07:00:00 16.5 3 Sudoeste 5 Sudeste 0 -- -- 53
2020-03-12 06:00:00 17.1 0 Calma 13 Sudeste 0 -- -- 51
2020-03-12 05:00:00 18.9 7 Sudeste 19 Sudeste 0 -- -- 44
2020-03-12 04:00:00 18.3 3 Sudeste 11 Sudeste 0 -- -- 45
2020-03-12 03:00:00 17.7 3 Este 14 Nordeste 0 -- -- 46
2020-03-12 02:00:00 17.2 4 Nordeste 9 Sudeste 0 -- -- 53
2020-03-12 01:00:00 15.7 5 Nordeste 8 Nordeste 0 -- -- 64
2020-03-12 00:00:00 15 4 Norte 6 Noroeste 0 -- -- 68
2020-03-11 23:00:00 15.1 5 Norte 8 Nordeste 0 -- -- 67
2020-03-11 22:00:00 15.3 5 Nordeste 8 Norte 0 -- -- 66
2020-03-11 21:00:00 15.5 4 Nordeste 6 Nordeste 0 -- -- 66
2020-03-11 20:00:00 16.7 0 Calma 6 Sur 0 -- -- 62
2020-03-11 19:00:00 18.8 3 Sur 15 Sur 0 -- -- 56
2020-03-11 18:00:00 21.1 7 Sur 17 Sur 0 -- -- 47
2020-03-11 17:00:00 21.7 8 Sudeste 19 Sudeste 0 -- -- 44
2020-03-11 16:00:00 20.2 12 Sudeste 25 Sudeste 0 -- -- 49
2020-03-11 15:00:00 20.3 12 Sudeste 27 Sudeste 0 -- -- 48
2020-03-11 14:00:00 20.5 14 Sudeste 29 Este 0 -- -- 47
2020-03-11 13:00:00 19.9 14 Sudeste 27 Sudeste 0 -- -- 45
2020-03-11 12:00:00 18.8 16 Sudeste 28 Sudeste 0 -- -- 43
2020-03-11 11:00:00 17.9 17 Sudeste 28 Sudeste 0 -- -- 47
2020-03-11 10:00:00 17.4 14 Sudeste 21 Sudeste 0 -- -- 50
2020-03-11 09:00:00 16.3 6 Sudeste 12 Este 0 -- -- 52
2020-03-11 08:00:00 14.5 4 Este 11 Sudeste 0 -- -- 55
2020-03-11 07:00:00 15.1 6 Sudeste 15 Sudeste 0 -- -- 49
2020-03-11 06:00:00 14.5 2 Nordeste 10 Este 0 -- -- 47
2020-03-11 05:00:00 14.2 3 Nordeste 10 Nordeste 0 -- -- 47
2020-03-11 04:00:00 14.3 2 Este 10 Nordeste 0 -- -- 48
2020-03-11 03:00:00 14.5 3 Este 9 Este 0 -- -- 47
2020-03-11 02:00:00 15 5 Nordeste 16 Sudeste 0 -- -- 47
2020-03-11 01:00:00 14.9 5 Sudeste 11 Sudeste 0 -- -- 47
2020-03-11 00:00:00 14.5 2 Nordeste 8 Este 0 -- -- 49
2020-03-10 23:00:00 14.8 3 Nordeste 10 Nordeste 0 -- -- 50
2020-03-10 22:00:00 14.7 3 Nordeste 9 Este 0 -- -- 52
2020-03-10 21:00:00 15.1 5 Nordeste 8 Nordeste 0 -- -- 52
2020-03-10 20:00:00 16 2 Este 16 Sudeste 0 -- -- 53
2020-03-10 19:00:00 17.3 9 Sudeste 21 Este 0 -- -- 50
2020-03-10 18:00:00 18.8 11 Sudeste 24 Sudeste 0 -- -- 46
2020-03-10 17:00:00 19 14 Sudeste 31 Sudeste 0 -- -- 53
2020-03-10 16:00:00 18.4 20 Sudeste 35 Sudeste 0 -- -- 66
2020-03-10 15:00:00 18.4 18 Sudeste 37 Este 0 -- -- 66
2020-03-10 14:00:00 19.7 20 Sudeste 37 Sudeste 0 -- -- 54
2020-03-10 13:00:00 19.5 14 Sudeste 32 Sudeste 0 -- -- 52
2020-03-10 12:00:00 18.6 13 Sudeste 23 Sur 0 -- -- 59
2020-03-10 11:00:00 20.5 10 Sudeste 23 Sudeste 0 -- -- 46
2020-03-10 10:00:00 20 2 Nordeste 8 Nordeste 0 -- -- 51
2020-03-10 09:00:00 18.1 5 Norte 7 Norte 0 -- -- 48
2020-03-10 08:00:00 15.4 0 Calma 10 Sur 0 -- -- 46
2020-03-10 07:00:00 15.6 3 Norte 8 Noroeste 0 -- -- 46
2020-03-10 06:00:00 15.5 6 Norte 17 Noroeste 0 -- -- 44
2020-03-10 05:00:00 15.8 7 Noroeste 12 Noroeste 0 -- -- 47
2020-03-10 04:00:00 16.5 6 Norte 9 Norte 0 -- -- 44
2020-03-10 03:00:00 16.7 3 Norte 25 Noroeste 0 -- -- 43
2020-03-10 02:00:00 17.6 18 Noroeste 29 Noroeste 0 -- -- 44
2020-03-10 01:00:00 18.5 16 Noroeste 44 Norte 0 -- -- 42
2020-03-10 00:00:00 18.8 23 Norte 42 Norte 0 -- -- 41
2020-03-09 23:00:00 19.1 25 Norte 47 Norte 0 -- -- 40
2020-03-09 22:00:00 18.1 20 Noroeste 29 Noroeste 0 -- -- 43
2020-03-09 21:00:00 19.8 16 Noroeste 40 Noroeste 0 -- -- 37
2020-03-09 20:00:00 20.1 19 Noroeste 40 Noroeste 0 -- -- 35
2020-03-09 19:00:00 22.1 24 Noroeste 38 Noroeste 0 -- -- 32
2020-03-09 18:00:00 25 18 Noroeste 32 Noroeste 0 -- -- 32
2020-03-09 17:00:00 24.9 8 Este 14 Este 0 -- -- 30
2020-03-09 16:00:00 24.5 7 Este 15 Sudeste 0 -- -- 37
2020-03-09 15:00:00 23.9 9 Este 18 Este 0 -- -- 40
2020-03-09 14:00:00 24.9 5 Oeste 14 Noroeste 0 -- -- 30
2020-03-09 13:00:00 22.4 8 Este 20 Este 0 -- -- 38
2020-03-09 12:00:00 23.3 10 Este 34 Noroeste 0 -- -- 30
2020-03-09 11:00:00 21.3 13 Noroeste 26 Noroeste 0 -- -- 33
2020-03-09 10:00:00 21.1 8 Noroeste 16 Norte 0 -- -- 37
2020-03-09 09:00:00 17.9 10 Norte 22 Noroeste 0 -- -- 42
2020-03-09 08:00:00 17.4 5 Nordeste 19 Nordeste 0 -- -- 37
2020-03-09 07:00:00 18.5 9 Norte 27 Norte 0 -- -- 31
2020-03-09 06:00:00 16.9 14 Norte 31 Norte 0 -- -- 36
2020-03-09 05:00:00 18.2 16 Norte 28 Norte 0 -- -- 34
2020-03-09 04:00:00 18.7 16 Norte 31 Norte 0 -- -- 33
2020-03-09 03:00:00 15.6 18 Noroeste 26 Noroeste 0 -- -- 43
2020-03-09 02:00:00 15.9 19 Noroeste 29 Noroeste 0 -- -- 43
2020-03-09 01:00:00 16.4 17 Noroeste 27 Noroeste 0 -- -- 42
2020-03-09 00:00:00 16.6 17 Noroeste 27 Noroeste 0 -- -- 47
2020-03-08 23:00:00 16.8 20 Noroeste 30 Noroeste 0 -- -- 53
2020-03-08 22:00:00 16.2 10 Noroeste 23 Noroeste 0 -- -- 59
2020-03-08 21:00:00 16.3 12 Noroeste 22 Noroeste 0 -- -- 58
2020-03-08 20:00:00 15.7 6 Noroeste 9 Noroeste 0 -- -- 51
2020-03-08 19:00:00 17.6 4 Sudoeste 9 Sudeste 0 -- -- 57
2020-03-08 18:00:00 19.9 5 Sur 10 Sudeste 0 -- -- 52
2020-03-08 17:00:00 20.1 5 Sur 13 Sur 0 -- -- 51
2020-03-08 16:00:00 19.8 7 Sur 15 Sur 0 -- -- 50
2020-03-08 15:00:00 19.5 9 Sur 19 Sudeste 0 -- -- 48
2020-03-08 14:00:00 18.8 8 Sur 19 Sudeste 0 -- -- 54
2020-03-08 13:00:00 17.9 8 Sur 16 Sudeste 0 -- -- 58
2020-03-08 12:00:00 17.3 7 Sur 14 Sudeste 0 -- -- 62
2020-03-08 11:00:00 17.1 5 Sudeste 12 Sudeste 0 -- -- 59
2020-03-08 10:00:00 16.3 2 Este 6 Nordeste 0 -- -- 64
2020-03-08 09:00:00 14.1 4 Nordeste 7 Nordeste 0 -- -- 75
2020-03-08 08:00:00 10.8 4 Norte 7 Nordeste 0 -- -- 80
2020-03-08 07:00:00 11.2 2 Norte 6 Este 0 -- -- 77
2020-03-08 06:00:00 11.5 3 Nordeste 12 Nordeste 0 -- -- 73
2020-03-08 05:00:00 10.9 3 Nordeste 9 Nordeste 0 -- -- 64
2020-03-08 04:00:00 10.7 3 Norte 5 Norte 0 -- -- 63
2020-03-08 03:00:00 11.7 4 Nordeste 8 Nordeste 0 -- -- 57
2020-03-08 02:00:00 11.3 3 Norte 7 Norte 0 -- -- 59
2020-03-08 01:00:00 11.4 2 Oeste 6 Noroeste 0 -- -- 60
2020-03-08 00:00:00 11.9 4 Noroeste 7 Este 0 -- -- 59
2020-03-07 23:00:00 12.8 3 Norte 10 Nordeste 0 -- -- 57
2020-03-07 22:00:00 13.8 8 Nordeste 21 Noroeste 0 -- -- 57
2020-03-07 21:00:00 14.8 2 Sudoeste 21 Noroeste 0 -- -- 53
2020-03-07 20:00:00 13.9 11 Noroeste 14 Noroeste 0 -- -- 52
2020-03-07 19:00:00 16.5 3 Oeste 11 Sudoeste 0 -- -- 58
2020-03-07 18:00:00 17 5 Sudeste 16 Sudeste 0 -- -- 56
2020-03-07 17:00:00 17.9 7 Sur 15 Sudeste 0 -- -- 53
2020-03-07 16:00:00 18.8 9 Sur 19 Sur 0 -- -- 47
2020-03-07 15:00:00 19.3 10 Sur 23 Sur 0 -- -- 39
2020-03-07 14:00:00 19.1 13 Sur 23 Sur 0 -- -- 34
2020-03-07 13:00:00 18 8 Sur 24 Sur 0 -- -- 41
2020-03-07 12:00:00 18.2 10 Sur 21 Este 0 -- -- 39
2020-03-07 11:00:00 18.4 7 Este 17 Sudeste 0 -- -- 35
2020-03-07 10:00:00 17.3 2 Nordeste 5 Este 0 -- -- 41
2020-03-07 09:00:00 14.1 2 Nordeste 13 Noroeste 0 -- -- 52
2020-03-07 08:00:00 10.5 10 Noroeste 14 Noroeste 0 -- -- 59
2020-03-07 07:00:00 10.5 4 Norte 7 Noroeste 0 -- -- 58
2020-03-07 06:00:00 10.7 4 Nordeste 13 Noroeste 0 -- -- 57
2020-03-07 05:00:00 11 10 Noroeste 17 Noroeste 0 -- -- 57
2020-03-07 04:00:00 11 9 Noroeste 16 Noroeste 0 -- -- 59
2020-03-07 03:00:00 12.3 5 Norte 26 Noroeste 0 -- -- 56
2020-03-07 02:00:00 12.5 15 Noroeste 34 Noroeste 0 -- -- 58
2020-03-07 01:00:00 14 21 Norte 35 Norte 0 -- -- 53
2020-03-07 00:00:00 14.3 19 Norte 30 Norte 0 -- -- 52
2020-03-06 23:00:00 12.8 14 Noroeste 25 Oeste 0 -- -- 66
2020-03-06 22:00:00 13.4 14 Noroeste 27 Noroeste 0 -- -- 66
2020-03-06 21:00:00 14.2 21 Noroeste 45 Noroeste 0 -- -- 63
2020-03-06 20:00:00 14.6 25 Noroeste 40 Oeste 0 -- -- 59
2020-03-06 19:00:00 16.7 21 Oeste 33 Noroeste 0 -- -- 54
2020-03-06 18:00:00 18.9 20 Noroeste 36 Oeste 0 -- -- 43
2020-03-06 17:00:00 19.3 22 Noroeste 42 Noroeste 0 -- -- 45
2020-03-06 16:00:00 18.9 23 Noroeste 45 Oeste 0 -- -- 46
2020-03-06 15:00:00 18.5 24 Noroeste 47 Oeste 0 -- -- 48
2020-03-06 14:00:00 17.8 27 Noroeste 49 Oeste 0 -- -- 48
2020-03-06 13:00:00 16.7 32 Noroeste 51 Oeste 0 -- -- 52
2020-03-06 12:00:00 15.8 19 Norte 41 Norte 0 -- -- 59
2020-03-06 11:00:00 14.5 19 Noroeste 42 Noroeste 0 -- -- 64
2020-03-06 10:00:00 13 16 Noroeste 35 Oeste 0 -- -- 69
2020-03-06 09:00:00 11.4 18 Noroeste 35 Noroeste 0 -- -- 71
2020-03-06 08:00:00 10.3 17 Noroeste 37 Noroeste 0 -- -- 72
2020-03-06 07:00:00 10.6 23 Noroeste 46 Noroeste 0 -- -- 70
2020-03-06 06:00:00 10.6 19 Noroeste 41 Noroeste 0 -- -- 71
2020-03-06 05:00:00 11.2 21 Noroeste 46 Norte 0 -- -- 68
2020-03-06 04:00:00 11.7 21 Norte 41 Norte 0 -- -- 68
2020-03-06 03:00:00 12.1 10 Noroeste 36 Noroeste 0 -- -- 67
2020-03-06 02:00:00 13.2 13 Noroeste 44 Noroeste 0 -- -- 64
2020-03-06 01:00:00 14.1 22 Norte 41 Norte 0 -- -- 62
2020-03-06 00:00:00 14.3 19 Norte 34 Norte 0 -- -- 64
2020-03-05 23:00:00 13.9 14 Noroeste 28 Norte 0 -- -- 71
2020-03-05 22:00:00 14.1 8 Noroeste 33 Noroeste 0 -- -- 71
2020-03-05 21:00:00 14.3 22 Noroeste 34 Noroeste 0 -- -- 73
2020-03-05 20:00:00 15.3 17 Noroeste 46 Noroeste 0 -- -- 66
2020-03-05 19:00:00 16.4 21 Noroeste 38 Norte 0 -- -- 63
2020-03-05 18:00:00 16.5 24 Noroeste 42 Oeste 0 -- -- 73
2020-03-05 17:00:00 16.4 28 Oeste 44 Oeste 0 -- -- 75
2020-03-05 16:00:00 16.1 26 Noroeste 51 Noroeste 0 -- -- 77
2020-03-05 15:00:00 16.6 24 Oeste 45 Noroeste 0 -- -- 73
2020-03-05 14:00:00 17.1 22 Noroeste 41 Noroeste 0 -- -- 69
2020-03-05 13:00:00 18.1 22 Noroeste 49 Noroeste 0 -- -- 63
2020-03-05 12:00:00 17.9 26 Noroeste 56 Oeste 0 -- -- 61
2020-03-05 11:00:00 17.3 35 Oeste 49 Oeste 0 -- -- 68
2020-03-05 10:00:00 14.5 28 Oeste 40 Noroeste 0 -- -- 80
2020-03-05 09:00:00 14.1 20 Noroeste 29 Noroeste 0 -- -- 77
2020-03-05 08:00:00 12.6 17 Noroeste 31 Noroeste 0 -- -- 80
2020-03-05 07:00:00 12.6 21 Noroeste 33 Noroeste 0 -- -- 81
2020-03-05 06:00:00 13 21 Noroeste 34 Noroeste 0 -- -- 79
2020-03-05 05:00:00 13.2 24 Noroeste 38 Noroeste 0 -- -- 80
2020-03-05 04:00:00 13 27 Noroeste 41 Noroeste 0 -- -- 82
2020-03-05 03:00:00 13.2 27 Noroeste 42 Noroeste 0 -- -- 81
2020-03-05 02:00:00 13.8 26 Noroeste 43 Noroeste 0 -- -- 79
2020-03-05 01:00:00 13.8 26 Noroeste 37 Noroeste 0 -- -- 81
2020-03-05 00:00:00 14 26 Noroeste 38 Noroeste 0 -- -- 82
2020-03-04 23:00:00 14.8 23 Noroeste 35 Noroeste 0 -- -- 79
2020-03-04 22:00:00 15.2 22 Noroeste 31 Noroeste 0 -- -- 78
2020-03-04 21:00:00 16 22 Noroeste 30 Noroeste 0 -- -- 72
2020-03-04 20:00:00 17.7 12 Noroeste 31 Noroeste 0 -- -- 62
2020-03-04 19:00:00 19.8 17 Norte 31 Noroeste 0 -- -- 54
2020-03-04 18:00:00 22.5 14 Noroeste 35 Oeste 0 -- -- 49
2020-03-04 17:00:00 22.6 24 Noroeste 42 Noroeste 0 -- -- 47
2020-03-04 16:00:00 22.7 24 Noroeste 44 Noroeste 0 -- -- 46
2020-03-04 15:00:00 22.5 23 Noroeste 44 Oeste 0 -- -- 49
2020-03-04 14:00:00 21.8 27 Noroeste 41 Noroeste 0 -- -- 51
2020-03-04 13:00:00 21.4 20 Noroeste 47 Oeste 0 -- -- 51
2020-03-04 12:00:00 20.3 24 Noroeste 46 Noroeste 0 -- -- 54
2020-03-04 11:00:00 18.6 19 Noroeste 36 Noroeste 0 -- -- 63
2020-03-04 10:00:00 16.2 18 Noroeste 34 Oeste 0 -- -- 76
2020-03-04 09:00:00 14.3 17 Noroeste 32 Noroeste 0 -- -- 84
2020-03-04 08:00:00 13 18 Noroeste 27 Noroeste 0 -- -- 87
2020-03-04 07:00:00 14.3 22 Noroeste 36 Noroeste 0 -- -- 81
2020-03-04 06:00:00 14.4 14 Noroeste 34 Norte 0 -- -- 80
2020-03-04 05:00:00 14.7 13 Norte 39 Norte 0 -- -- 80
2020-03-04 04:00:00 14.6 6 Noroeste 24 Oeste 0 -- -- 85
2020-03-04 03:00:00 14.5 17 Noroeste 28 Noroeste 0 -- -- 87
2020-03-04 02:00:00 14.4 16 Noroeste 24 Noroeste 0 -- -- 88
2020-03-04 01:00:00 14.8 16 Noroeste 23 Noroeste 0 -- -- 85
2020-03-04 00:00:00 15.1 7 Noroeste 27 Noroeste 0 -- -- 83